createdAt,value
2018-04-02T00:01:04.900Z,85.20
2018-04-02T00:03:30.864Z,85.60
2018-04-02T00:05:56.829Z,86.10
2018-04-02T00:08:23.640Z,86.60
2018-04-02T00:10:49.628Z,86.20
2018-04-02T00:13:15.620Z,86.10
2018-04-02T00:15:42.344Z,88.30
2018-04-02T00:18:08.320Z,88.20
2018-04-02T00:20:35.028Z,89.40
2018-04-02T00:23:01.028Z,89.40
2018-04-02T00:25:26.996Z,89.70
2018-04-02T00:27:52.976Z,89.70
2018-04-02T00:30:19.180Z,89.40
2018-04-02T00:32:45.139Z,88.30
2018-04-02T00:35:11.099Z,87.40
2018-04-02T00:37:37.072Z,85.40
2018-04-02T00:40:03.048Z,85.20
2018-04-02T00:42:29.760Z,83.90
2018-04-02T00:44:55.744Z,83.80
2018-04-02T00:47:22.469Z,83.30
2018-04-02T00:49:48.440Z,83.30
2018-04-02T00:52:14.440Z,83.40
2018-04-02T00:54:41.132Z,84.40
2018-04-02T00:57:07.092Z,84.40
2018-04-02T00:59:33.256Z,84.10
2018-04-02T01:01:59.230Z,84.40
2018-04-02T01:04:25.927Z,85.40
2018-04-02T01:06:51.928Z,85.30
2018-04-02T01:09:17.920Z,85.40
2018-04-02T01:11:44.032Z,85.40
2018-04-02T01:14:10.004Z,85.50
2018-04-02T01:16:35.997Z,86.10
2018-04-02T01:19:01.957Z,86.50
2018-04-02T01:21:27.965Z,87.10
2018-04-02T01:23:53.981Z,88.00
2018-04-02T01:26:20.812Z,89.30
2018-04-02T01:28:46.840Z,89.20
2018-04-02T01:31:14.285Z,89.80
2018-04-02T01:33:40.248Z,89.80
2018-04-02T01:36:06.322Z,90.20
2018-04-02T01:38:32.301Z,90.50
2018-04-02T01:40:58.289Z,90.50
2018-04-02T01:43:24.348Z,90.60
2018-04-02T01:45:50.322Z,90.80
2018-04-02T01:48:16.276Z,90.90
2018-04-02T01:50:43.022Z,91.00
2018-04-02T01:53:09.892Z,91.30
2018-04-02T01:55:36.596Z,91.40
2018-04-02T01:58:02.568Z,91.40
2018-04-02T02:00:28.533Z,91.50
2018-04-02T02:02:54.556Z,91.90
2018-04-02T02:05:20.597Z,92.00
2018-04-02T02:07:46.574Z,92.00
2018-04-02T02:10:12.557Z,92.00
2018-04-02T02:12:39.289Z,92.00
2018-04-02T02:15:05.993Z,92.00
2018-04-02T02:17:31.952Z,92.00
2018-04-02T02:19:58.046Z,91.80
2018-04-02T02:22:24.045Z,91.30
2018-04-02T02:24:50.765Z,91.00
2018-04-02T02:27:16.928Z,91.00
2018-04-02T02:29:42.886Z,90.90
2018-04-02T02:32:09.622Z,91.20
2018-04-02T02:34:35.606Z,90.90
2018-04-02T02:37:01.569Z,91.00
2018-04-02T02:39:27.534Z,91.30
2018-04-02T02:41:53.626Z,91.40
2018-04-02T02:44:19.608Z,91.10
2018-04-02T02:46:45.571Z,91.30
2018-04-02T02:49:11.552Z,91.20
2018-04-02T02:51:37.516Z,91.40
2018-04-02T02:54:03.605Z,91.70
2018-04-02T02:56:30.288Z,91.80
2018-04-02T02:58:56.259Z,91.90
2018-04-02T03:01:22.973Z,91.90
2018-04-02T03:03:49.005Z,91.90
2018-04-02T03:06:14.971Z,92.10
2018-04-02T03:08:40.924Z,92.30
2018-04-02T03:11:07.654Z,92.30
2018-04-02T03:13:33.609Z,92.30
2018-04-02T03:16:00.304Z,92.50
2018-04-02T03:18:26.664Z,92.40
2018-04-02T03:20:52.624Z,92.50
2018-04-02T03:23:18.596Z,92.80
2018-04-02T03:25:45.144Z,92.90
2018-04-02T03:28:11.101Z,93.00
2018-04-02T03:30:37.082Z,92.70
2018-04-02T03:33:03.932Z,92.50
2018-04-02T03:35:29.913Z,92.40
2018-04-02T03:37:55.876Z,92.70
2018-04-02T03:40:22.136Z,92.50
2018-04-02T03:42:48.112Z,92.60
2018-04-02T03:45:14.092Z,92.80
2018-04-02T03:47:40.236Z,92.80
2018-04-02T03:50:06.960Z,92.90
2018-04-02T03:52:32.916Z,92.90
2018-04-02T03:54:58.984Z,93.10
2018-04-02T03:57:25.685Z,94.20
2018-04-02T03:59:51.677Z,93.90
2018-04-02T04:02:18.928Z,94.10
2018-04-02T04:04:44.903Z,94.10
2018-04-02T04:07:10.866Z,94.30
2018-04-02T04:09:37.021Z,94.40
2018-04-02T04:12:02.989Z,94.50
2018-04-02T04:14:29.697Z,94.60
2018-04-02T04:16:55.700Z,94.60
2018-04-02T04:19:21.765Z,94.70
2018-04-02T04:21:47.740Z,94.90
2018-04-02T04:24:14.585Z,95.00
2018-04-02T04:26:40.569Z,94.90
2018-04-02T04:29:06.528Z,94.90
2018-04-02T04:31:32.792Z,95.00
2018-04-02T04:33:58.781Z,94.90
2018-04-02T04:36:24.749Z,95.00
2018-04-02T04:38:50.996Z,94.90
2018-04-02T04:41:16.996Z,95.10
2018-04-02T04:43:42.964Z,95.20
2018-04-02T04:46:09.024Z,95.30
2018-04-02T04:48:34.997Z,95.40
2018-04-02T04:51:00.969Z,95.80
2018-04-02T04:53:26.985Z,95.60
2018-04-02T04:55:53.197Z,95.50
2018-04-02T04:58:20.201Z,95.50
2018-04-02T05:00:46.209Z,95.50
2018-04-02T05:03:12.173Z,95.50
2018-04-02T05:05:38.148Z,95.60
2018-04-02T05:08:04.873Z,95.30
2018-04-02T05:10:30.832Z,95.30
2018-04-02T05:12:57.549Z,95.20
2018-04-02T05:15:23.601Z,95.10
2018-04-02T05:17:49.648Z,95.30
2018-04-02T05:20:15.608Z,95.30
2018-04-02T05:22:41.701Z,95.10
2018-04-02T05:25:07.664Z,95.10
2018-04-02T05:27:34.372Z,95.30
2018-04-02T05:30:00.585Z,95.00
2018-04-02T05:32:26.549Z,95.00
2018-04-02T05:34:52.569Z,94.60
2018-04-02T05:37:18.605Z,93.80
2018-04-02T05:39:44.589Z,92.60
2018-04-02T05:42:10.534Z,92.40
2018-04-02T05:44:36.536Z,92.40
2018-04-02T05:47:02.517Z,91.50
2018-04-02T05:49:28.483Z,91.50
2018-04-02T05:51:54.484Z,91.20
2018-04-02T05:54:21.193Z,90.00
2018-04-02T05:56:47.281Z,90.00
2018-04-02T05:59:14.012Z,87.00
2018-04-02T06:01:39.981Z,87.00
2018-04-02T06:04:05.961Z,85.00
2018-04-02T06:06:32.046Z,82.60
2018-04-02T06:08:58.024Z,78.80
2018-04-02T06:11:24.013Z,74.70
2018-04-02T06:13:50.941Z,67.00
2018-04-02T06:16:16.917Z,66.90
2018-04-02T06:18:49.916Z,70.00
2018-04-02T06:21:15.913Z,71.60
2018-04-02T06:23:41.901Z,72.10
2018-04-02T06:26:07.864Z,74.60
2018-04-02T06:28:33.908Z,76.30
2018-04-02T06:30:59.887Z,77.00
2018-04-02T06:33:25.874Z,76.80
2018-04-02T06:35:52.135Z,75.20
2018-04-02T06:38:18.849Z,72.70
2018-04-02T06:40:44.870Z,72.60
2018-04-02T06:43:10.852Z,73.60
2018-04-02T06:45:36.818Z,72.20
2018-04-02T06:48:03.554Z,73.20
2018-04-02T06:50:29.534Z,73.20
2018-04-02T06:52:55.544Z,73.70
2018-04-02T06:55:21.508Z,74.50
2018-04-02T06:57:47.552Z,74.60
2018-04-02T07:00:13.554Z,75.90
2018-04-02T07:02:40.276Z,76.80
2018-04-02T07:05:06.253Z,76.80
2018-04-02T07:07:32.222Z,77.00
2018-04-02T07:09:58.180Z,75.90
2018-04-02T07:12:24.152Z,75.30
2018-04-02T07:14:50.864Z,73.20
2018-04-02T07:17:16.833Z,73.20
2018-04-02T07:19:42.932Z,72.20
2018-04-02T07:22:08.910Z,71.50
2018-04-02T07:24:35.617Z,68.70
2018-04-02T07:27:01.969Z,68.70
2018-04-02T07:29:27.948Z,68.20
2018-04-02T07:31:53.925Z,66.00
2018-04-02T07:34:19.976Z,64.90
2018-04-02T07:36:46.682Z,65.70
2018-04-02T07:42:03.476Z,62.20
2018-04-02T07:44:29.428Z,61.50
2018-04-02T07:46:55.405Z,61.50
2018-04-02T07:49:21.468Z,59.80
2018-04-02T07:51:47.477Z,57.10
2018-04-02T07:54:13.440Z,55.00
2018-04-02T07:56:39.465Z,51.50
2018-04-02T07:59:05.436Z,47.60
2018-04-02T08:01:31.392Z,44.20
2018-04-02T08:03:58.212Z,40.30
2018-04-02T08:06:24.206Z,40.20
2018-04-02T08:08:50.405Z,38.00
2018-04-02T08:11:16.539Z,38.90
2018-04-02T08:13:42.503Z,37.80
2018-04-02T08:16:09.212Z,34.40
2018-04-02T08:18:35.285Z,34.30
2018-04-02T08:21:01.992Z,34.90
2018-04-02T08:23:28.003Z,34.60
2018-04-02T08:25:54.362Z,32.80
2018-04-02T08:28:20.394Z,31.90
2018-04-02T08:30:47.065Z,32.60
2018-04-02T08:33:13.084Z,32.60
2018-04-02T08:35:39.062Z,31.90
2018-04-02T08:38:05.029Z,32.30
2018-04-02T08:40:32.035Z,32.30
2018-04-02T08:42:58.053Z,32.30
2018-04-02T08:45:24.028Z,31.70
2018-04-02T08:47:50.535Z,31.60
2018-04-02T08:50:16.492Z,32.60
2018-04-02T08:52:42.473Z,33.10
2018-04-02T08:55:09.592Z,37.50
2018-04-02T08:57:35.555Z,37.30
2018-04-02T09:00:01.541Z,39.50
2018-04-02T09:02:27.538Z,41.40
2018-04-02T09:04:54.279Z,41.80
2018-04-02T09:07:21.070Z,42.60
2018-04-02T09:09:47.074Z,42.60
2018-04-02T09:12:13.810Z,42.90
2018-04-02T09:14:39.769Z,42.80
2018-04-02T09:17:06.500Z,44.10
2018-04-02T09:19:32.476Z,44.10
2018-04-02T09:21:58.449Z,45.50
2018-04-02T09:24:24.672Z,46.40
2018-04-02T09:26:50.666Z,46.40
2018-04-02T09:29:17.410Z,45.20
2018-04-02T09:31:44.177Z,44.80
2018-04-02T09:34:10.903Z,44.90
2018-04-02T09:36:36.866Z,44.90
2018-04-02T09:39:03.796Z,45.20
2018-04-02T09:41:29.747Z,45.00
2018-04-02T09:43:55.700Z,45.80
2018-04-02T09:46:22.745Z,44.40
2018-04-02T09:48:49.548Z,44.50
2018-04-02T09:51:15.516Z,44.50
2018-04-02T09:53:41.668Z,44.40
2018-04-02T09:56:07.620Z,45.20
2018-04-02T09:58:34.388Z,47.10
2018-04-02T10:01:00.395Z,47.10
2018-04-02T10:03:33.356Z,48.20
2018-04-02T10:05:59.333Z,48.10
2018-04-02T10:08:26.172Z,48.50
2018-04-02T10:10:52.158Z,48.50
2018-04-02T10:13:18.148Z,48.10
2018-04-02T10:15:44.120Z,49.20
2018-04-02T10:18:10.093Z,48.30
2018-04-02T10:20:36.054Z,46.50
2018-04-02T10:23:02.184Z,46.30
2018-04-02T10:25:28.140Z,46.60
2018-04-02T10:27:54.878Z,45.40
2018-04-02T10:30:21.114Z,45.30
2018-04-02T10:32:47.096Z,44.90
2018-04-02T10:35:13.075Z,45.50
2018-04-02T10:37:39.221Z,45.40
2018-04-02T10:40:05.305Z,46.20
2018-04-02T10:42:31.263Z,46.20
2018-04-02T10:44:57.248Z,45.70
2018-04-02T10:47:23.972Z,43.80
2018-04-02T10:49:49.988Z,43.30
2018-04-02T10:52:15.976Z,44.20
2018-04-02T10:54:42.692Z,43.90
2018-04-02T10:57:08.669Z,43.90
2018-04-02T10:59:35.417Z,43.20
2018-04-02T11:02:02.111Z,43.20
2018-04-02T11:04:28.113Z,43.10
2018-04-02T11:06:54.840Z,44.30
2018-04-02T11:09:20.826Z,44.20
2018-04-02T11:11:46.786Z,43.50
2018-04-02T11:14:12.803Z,43.30
2018-04-02T11:16:38.775Z,43.40
2018-04-02T11:19:04.744Z,42.50
2018-04-02T11:21:31.484Z,43.30
2018-04-02T11:23:58.215Z,43.30
2018-04-02T11:26:24.193Z,43.10
2018-04-02T11:28:50.908Z,42.50
2018-04-02T11:31:17.645Z,41.00
2018-04-02T11:33:43.645Z,41.00
2018-04-02T11:36:09.837Z,42.30
2018-04-02T11:38:35.797Z,42.50
2018-04-02T11:41:02.496Z,42.00
2018-04-02T11:43:28.471Z,41.90
2018-04-02T11:45:54.452Z,41.40
2018-04-02T11:48:20.438Z,41.60
2018-04-02T11:50:46.908Z,40.80
2018-04-02T11:53:13.600Z,40.20
2018-04-02T11:55:39.560Z,40.20
2018-04-02T11:58:05.572Z,40.30
2018-04-02T12:00:31.559Z,40.00
2018-04-02T12:02:58.276Z,41.20
2018-04-02T12:05:24.298Z,41.20
2018-04-02T12:07:50.258Z,41.10
2018-04-02T12:10:16.365Z,40.70
2018-04-02T12:12:42.329Z,39.70
2018-04-02T12:15:08.288Z,39.20
2018-04-02T12:17:34.992Z,39.30
2018-04-02T12:20:00.982Z,39.30
2018-04-02T12:22:27.688Z,39.40
2018-04-02T12:24:53.672Z,39.40
2018-04-02T12:27:20.636Z,38.70
2018-04-02T12:29:46.604Z,38.70
2018-04-02T12:32:12.574Z,38.90
2018-04-02T12:34:38.800Z,38.30
2018-04-02T12:37:04.784Z,38.30
2018-04-02T12:39:30.765Z,37.80
2018-04-02T12:41:56.753Z,38.80
2018-04-02T12:44:23.509Z,38.40
2018-04-02T12:46:49.428Z,38.40
2018-04-02T12:49:16.156Z,37.00
2018-04-02T12:51:42.936Z,37.00
2018-04-02T12:54:09.644Z,36.70
2018-04-02T12:56:35.641Z,36.70
2018-04-02T12:59:01.672Z,36.70
2018-04-02T13:01:27.640Z,36.80
2018-04-02T13:03:53.674Z,36.20
2018-04-02T13:06:19.637Z,36.00
2018-04-02T13:08:45.597Z,36.10
2018-04-02T13:11:12.321Z,35.60
2018-04-02T13:13:38.276Z,35.60
2018-04-02T13:16:04.243Z,36.80
2018-04-02T13:18:30.240Z,37.50
2018-04-02T13:20:56.219Z,37.30
2018-04-02T13:23:22.213Z,36.80
2018-04-02T13:25:48.345Z,36.60
2018-04-02T13:28:14.300Z,36.80
2018-04-02T13:30:40.992Z,36.80
2018-04-02T13:33:07.160Z,36.80
2018-04-02T13:35:33.119Z,36.60
2018-04-02T13:37:59.845Z,35.80
2018-04-02T13:40:25.840Z,35.30
2018-04-02T13:42:51.821Z,34.70
2018-04-02T13:45:17.781Z,34.10
2018-04-02T13:47:44.617Z,34.10
2018-04-02T13:50:10.613Z,34.00
2018-04-02T13:52:36.740Z,34.50
2018-04-02T13:55:02.753Z,34.70
2018-04-02T13:57:29.467Z,34.40
2018-04-02T13:59:55.591Z,34.30
2018-04-02T14:02:21.596Z,34.00
2018-04-02T14:04:47.577Z,33.70
2018-04-02T14:07:13.558Z,33.30
2018-04-02T14:09:39.756Z,32.90
2018-04-02T14:12:05.724Z,33.40
2018-04-02T14:14:32.436Z,34.70
2018-04-02T14:16:58.433Z,34.70
2018-04-02T14:19:24.418Z,34.80
2018-04-02T14:21:50.393Z,34.30
2018-04-02T14:24:17.320Z,33.80
2018-04-02T14:26:44.020Z,33.30
2018-04-02T14:29:09.994Z,33.30
2018-04-02T14:31:36.002Z,33.30
2018-04-02T14:34:01.959Z,33.90
2018-04-02T14:36:27.932Z,33.60
2018-04-02T14:38:53.970Z,33.80
2018-04-02T14:41:20.706Z,33.60
2018-04-02T14:43:46.663Z,33.60
2018-04-02T14:46:13.413Z,33.70
2018-04-02T14:48:40.117Z,34.20
2018-04-02T14:51:06.085Z,34.20
2018-04-02T14:53:32.065Z,34.90
2018-04-02T14:55:58.283Z,34.40
2018-04-02T14:58:24.994Z,34.50
2018-04-02T15:00:51.037Z,34.40
2018-04-02T15:03:17.021Z,34.40
2018-04-02T15:05:42.996Z,34.60
2018-04-02T15:08:08.984Z,34.40
2018-04-02T15:10:34.946Z,35.10
2018-04-02T15:13:00.901Z,34.50
2018-04-02T15:15:26.868Z,34.90
2018-04-02T15:17:52.853Z,34.70
2018-04-02T15:20:18.807Z,34.40
2018-04-02T15:22:44.793Z,34.00
2018-04-02T15:25:10.753Z,34.20
2018-04-02T15:27:36.704Z,34.10
2018-04-02T15:30:02.690Z,34.80
2018-04-02T15:32:29.400Z,35.10
2018-04-02T15:34:55.404Z,35.00
2018-04-02T15:37:21.745Z,34.90
2018-04-02T15:39:48.572Z,35.00
2018-04-02T15:42:15.278Z,34.50
2018-04-02T15:44:41.261Z,34.30
2018-04-02T15:47:07.963Z,34.80
2018-04-02T15:49:33.928Z,34.80
2018-04-02T15:51:59.909Z,34.50
2018-04-02T15:54:25.948Z,34.00
2018-04-02T15:56:51.938Z,33.90
2018-04-02T15:59:18.660Z,34.40
2018-04-02T16:01:44.615Z,34.30
2018-04-02T16:04:10.601Z,34.30
2018-04-02T16:06:36.612Z,33.80
2018-04-02T16:09:03.329Z,34.10
2018-04-02T16:11:29.420Z,34.00
2018-04-02T16:13:55.514Z,34.50
2018-04-02T16:16:21.560Z,34.10
2018-04-02T16:18:47.525Z,34.60
2018-04-02T16:21:13.513Z,34.60
2018-04-02T16:23:39.497Z,34.60
2018-04-02T16:26:05.469Z,34.50
2018-04-02T16:28:31.552Z,34.50
2018-04-02T16:30:58.272Z,34.40
2018-04-02T16:33:24.254Z,34.40
2018-04-02T16:35:51.036Z,34.40
2018-04-02T16:38:17.000Z,34.40
2018-04-02T16:40:42.962Z,33.70
2018-04-02T16:43:08.988Z,33.10
2018-04-02T16:45:34.960Z,32.60
2018-04-02T16:48:00.917Z,32.10
2018-04-02T16:50:26.932Z,32.40
2018-04-02T16:52:52.928Z,32.60
2018-04-02T16:55:18.965Z,31.70
2018-04-02T16:57:45.088Z,32.00
2018-04-02T17:00:11.051Z,32.30
2018-04-02T17:02:37.008Z,32.30
2018-04-02T17:05:03.295Z,32.40
2018-04-02T17:07:29.240Z,32.00
2018-04-02T17:09:55.207Z,32.20
2018-04-02T17:12:22.351Z,32.30
2018-04-02T17:14:48.328Z,32.20
2018-04-02T17:17:14.284Z,32.30
2018-04-02T17:19:40.285Z,31.60
2018-04-02T17:22:06.984Z,32.00
2018-04-02T17:24:32.949Z,32.00
2018-04-02T17:26:58.970Z,32.00
2018-04-02T17:29:24.936Z,31.60
2018-04-02T17:31:51.683Z,31.80
2018-04-02T17:34:18.721Z,31.90
2018-04-02T17:36:45.416Z,31.80
2018-04-02T17:39:11.375Z,31.80
2018-04-02T17:41:37.377Z,31.90
2018-04-02T17:44:04.089Z,32.00
2018-04-02T17:46:30.052Z,32.00
2018-04-02T17:48:56.049Z,32.30
2018-04-02T17:51:22.048Z,32.20
2018-04-02T17:53:48.025Z,32.80
2018-04-02T17:56:14.313Z,32.70
2018-04-02T17:58:40.222Z,33.10
2018-04-02T18:01:06.209Z,33.10
2018-04-02T18:03:32.188Z,33.40
2018-04-02T18:05:58.141Z,33.00
2018-04-02T18:08:24.152Z,33.50
2018-04-02T18:10:50.403Z,33.10
2018-04-02T18:13:16.368Z,33.80
2018-04-02T18:15:43.100Z,33.70
2018-04-02T18:18:09.441Z,33.70
2018-04-02T18:20:35.476Z,33.80
2018-04-02T18:23:01.385Z,34.10
2018-04-02T18:25:27.571Z,34.30
2018-04-02T18:27:53.559Z,34.20
2018-04-02T18:30:19.537Z,34.70
2018-04-02T18:32:46.681Z,35.00
2018-04-02T18:35:12.633Z,35.00
2018-04-02T18:37:39.348Z,35.50
2018-04-02T18:40:05.495Z,35.40
2018-04-02T18:42:32.208Z,36.70
2018-04-02T18:44:58.192Z,36.50
2018-04-02T18:47:24.186Z,36.90
2018-04-02T18:49:51.741Z,37.20
2018-04-02T18:52:17.737Z,37.20
2018-04-02T18:54:43.864Z,37.90
2018-04-02T18:57:09.928Z,38.10
2018-04-02T18:59:36.641Z,38.90
2018-04-02T19:02:02.791Z,38.80
2018-04-02T19:04:28.969Z,39.00
2018-04-02T19:06:55.713Z,40.00
2018-04-02T19:09:22.653Z,40.70
2018-04-02T19:11:48.641Z,40.00
2018-04-02T19:14:14.605Z,39.30
2018-04-02T19:16:40.616Z,39.70
2018-04-02T19:19:06.590Z,39.80
2018-04-02T19:21:32.543Z,40.60
2018-04-02T19:23:58.704Z,40.80
2018-04-02T19:26:25.453Z,42.30
2018-04-02T19:28:51.490Z,42.30
2018-04-02T19:31:18.220Z,42.50
2018-04-02T19:33:44.197Z,42.50
2018-04-02T19:36:10.159Z,43.10
2018-04-02T19:38:36.519Z,43.10
2018-04-02T19:41:02.509Z,42.40
2018-04-02T19:43:28.534Z,43.00
2018-04-02T19:45:54.588Z,42.50
2018-04-02T19:48:20.585Z,42.80
2018-04-02T19:50:46.536Z,43.70
2018-04-02T19:53:12.532Z,44.00
2018-04-02T19:55:38.525Z,44.50
2018-04-02T19:58:04.540Z,44.70
2018-04-02T20:00:30.599Z,45.20
2018-04-02T20:02:56.684Z,45.20
2018-04-02T20:05:22.696Z,44.70
2018-04-02T20:07:48.961Z,44.10
2018-04-02T20:10:14.940Z,44.10
2018-04-02T20:12:40.930Z,44.10
2018-04-02T20:15:06.937Z,44.00
2018-04-02T20:17:32.905Z,44.30
2018-04-02T20:19:58.861Z,44.70
2018-04-02T20:22:25.579Z,45.00
2018-04-02T20:24:51.548Z,44.90
2018-04-02T20:27:18.260Z,45.00
2018-04-02T20:29:44.257Z,44.90
2018-04-02T20:32:10.225Z,45.10
2018-04-02T20:34:36.200Z,44.70
2018-04-02T20:37:02.196Z,45.00
2018-04-02T20:39:28.167Z,45.80
2018-04-02T20:41:54.177Z,46.40
2018-04-02T20:44:20.213Z,46.60
2018-04-02T20:46:46.185Z,47.20
2018-04-02T20:49:12.123Z,46.90
2018-04-02T20:51:38.856Z,47.70
2018-04-02T20:54:04.810Z,47.70
2018-04-02T20:56:31.522Z,48.90
2018-04-02T20:58:57.496Z,48.70
2018-04-02T21:01:23.959Z,49.00
2018-04-02T21:03:49.984Z,49.40
2018-04-02T21:06:17.017Z,50.30
2018-04-02T21:08:42.978Z,50.20
2018-04-02T21:11:09.674Z,51.10
2018-04-02T21:13:35.706Z,51.10
2018-04-02T21:16:01.706Z,52.00
2018-04-02T21:18:28.446Z,52.80
2018-04-02T21:20:54.466Z,52.70
2018-04-02T21:23:20.496Z,52.90
2018-04-02T21:25:47.224Z,52.20
2018-04-02T21:28:13.605Z,52.10
2018-04-02T21:30:39.565Z,52.50
2018-04-02T21:33:06.272Z,50.50
2018-04-02T21:35:32.532Z,50.50
2018-04-02T21:37:58.541Z,51.00
2018-04-02T21:40:25.261Z,50.40
2018-04-02T21:42:51.488Z,50.30
2018-04-02T21:45:17.478Z,51.10
2018-04-02T21:47:43.443Z,50.70
2018-04-02T21:50:10.384Z,49.70
2018-04-02T21:52:36.344Z,50.10
2018-04-02T21:55:02.318Z,50.20
2018-04-02T21:57:28.488Z,50.90
2018-04-02T21:59:54.456Z,51.40
2018-04-02T22:02:21.180Z,51.60
2018-04-02T22:04:47.156Z,51.60
2018-04-02T22:07:13.195Z,50.80
2018-04-02T22:09:39.168Z,51.30
2018-04-02T22:12:05.189Z,51.60
2018-04-02T22:14:31.164Z,51.80
2018-04-02T22:16:57.151Z,50.00
2018-04-02T22:19:23.156Z,50.10
2018-04-02T22:21:49.117Z,50.50
2018-04-02T22:24:15.081Z,50.60
2018-04-02T22:26:41.248Z,51.60
2018-04-02T22:29:07.222Z,52.30
2018-04-02T22:31:33.200Z,52.40
2018-04-02T22:33:59.166Z,51.90
2018-04-02T22:36:25.201Z,52.10
2018-04-02T22:38:51.174Z,53.00
2018-04-02T22:41:17.180Z,55.30
2018-04-02T22:43:43.142Z,56.60
2018-04-02T22:46:09.117Z,58.30
2018-04-02T22:48:35.088Z,61.70
2018-04-02T22:51:01.088Z,62.10
2018-04-02T22:53:27.073Z,60.00
2018-04-02T22:55:53.988Z,59.60
2018-04-02T22:58:19.978Z,59.60
2018-04-02T23:00:45.953Z,58.90
2018-04-02T23:03:12.226Z,60.10
2018-04-02T23:05:38.187Z,60.20
2018-04-02T23:08:04.162Z,62.30
2018-04-02T23:10:30.152Z,63.70
2018-04-02T23:13:03.781Z,69.60
2018-04-02T23:15:29.737Z,69.50
2018-04-02T23:17:55.704Z,70.70
2018-04-02T23:20:21.723Z,68.30
2018-04-02T23:22:51.748Z,68.90
2018-04-02T23:25:17.748Z,70.50
2018-04-02T23:27:43.732Z,71.60
2018-04-02T23:30:09.744Z,71.80
2018-04-02T23:32:35.724Z,72.70
2018-04-02T23:35:02.449Z,72.30
2018-04-02T23:37:28.432Z,72.20
2018-04-02T23:39:55.159Z,76.20
2018-04-02T23:42:21.141Z,76.20
2018-04-02T23:44:47.143Z,75.20
2018-04-02T23:47:13.842Z,75.70
2018-04-02T23:49:39.801Z,75.70
2018-04-02T23:52:05.790Z,77.00
2018-04-02T23:54:31.769Z,79.10
2018-04-02T23:56:57.746Z,79.30
2018-04-02T23:59:24.515Z,79.50
